In Rescue
 
Open Full Screen Window  High Contrast Mode
Wind Gusting 00 knots
06
November 20, 2018 12:19 AM EST
Weather Information
Wind Direction
  290 °
Wind Speed
  06 kt (7 mph)
Wind Gust
  00 kt (0 mph)
Altimeter
29.97 in
Visibility
7 SM
Temperature
02° C
36° F
Dewpoint
00° C
32° F
Humidity
87%
1hr Rain Fall
00.00 in.
24hr Rain Fall
00.13 in.
Sky Condition
Overcast @ 600 ft
IFR

METAR KPOV 200519Z AUTO 29006KT 7SM OVC006 02/00 A2997 RMK AO2 PWINO

FAA Disclaimer: The data displayed is for advisory purposes only and is not to be used for flight planning or operations.